Back to Top

Language: 

My Weather Underground Personal Weather Station Historical Data with Graphs...

Delerius Weather Station Historical Data
Daily Summary for February 4, 2018 Units:  Metric    English   Both
« Previous Day
Next Day »
Daily Weekly Monthly Yearly Custom
  High: Low: Average:
Temperature: 5.1 °C 1.6 °C 2.7 °C
Dew Point: 2.4 °C -1.1 °C 0.6 °C
Humidity: 96 % 73 % 87 %
Wind Speed: 12.9 km/h 0 km/h 5.3 km/h
Wind Gust: 22.5 km/h - -
Wind:- - ESE
Pressure: 1032.4 hPa 1016.8 hPa -
Precipitation: 0 mm    
Historical Graphs
 
 
Tabular Data for February 4, 2018
Time Temperature Dew Point Pressure Wind Wind Speed Wind Gust Humidity Rainfall Rate (Hourly) solar Conditions
00:02 3 °C 2.4 °C 1016.8 hPa NE 8 km/h 16.1 km/h 96 % 0 mm 0 W/m2
00:07 3 °C 2.4 °C 1017.2 hPa NE 9.7 km/h 14.5 km/h 96 % 0 mm 0 W/m2
00:12 3 °C 2.4 °C 1017.2 hPa ENE 8 km/h 16.1 km/h 96 % 0 mm 0 W/m2
00:17 3 °C 2.4 °C 1017.5 hPa ENE 9.7 km/h 16.1 km/h 96 % 0 mm 0 W/m2
00:22 3 °C 2.4 °C 1017.5 hPa ENE 8 km/h 14.5 km/h 96 % 0 mm 0 W/m2
00:27 3 °C 2.4 °C 1017.8 hPa ENE 8 km/h 16.1 km/h 96 % 0 mm 0 W/m2
00:32 2.9 °C 2.3 °C 1017.8 hPa NE 8 km/h 12.9 km/h 96 % 0 mm 0 W/m2
00:37 2.9 °C 2.3 °C 1018.2 hPa NNE 6.4 km/h 14.5 km/h 96 % 0 mm 0 W/m2
00:42 2.9 °C 2.3 °C 1018.2 hPa NNE 6.4 km/h 12.9 km/h 96 % 0 mm 0 W/m2
00:47 2.9 °C 2.3 °C 1018.2 hPa NE 8 km/h 14.5 km/h 96 % 0 mm 0 W/m2
00:52 2.9 °C 2.3 °C 1018.5 hPa NNE 4.8 km/h 9.7 km/h 96 % 0 mm 0 W/m2
00:57 2.9 °C 2.3 °C 1018.5 hPa NE 6.4 km/h 12.9 km/h 96 % 0 mm 0 W/m2
01:02 2.9 °C 2.3 °C 1018.5 hPa ENE 3.2 km/h 8 km/h 96 % 0 mm 0 W/m2
01:07 2.9 °C 2.3 °C 1018.8 hPa NNE 6.4 km/h 9.7 km/h 96 % 0 mm 0 W/m2
01:12 2.8 °C 2.2 °C 1018.8 hPa NNE 4.8 km/h 11.3 km/h 96 % 0 mm 0 W/m2
01:17 2.8 °C 2.2 °C 1019.2 hPa NNE 6.4 km/h 11.3 km/h 96 % 0 mm 0 W/m2
01:22 2.8 °C 2.2 °C 1019.2 hPa North 4.8 km/h 9.7 km/h 96 % 0 mm 0 W/m2
01:27 2.8 °C 2.2 °C 1019.2 hPa North 3.2 km/h 8 km/h 96 % 0 mm 0 W/m2
01:32 2.8 °C 2.2 °C 1019.5 hPa North 3.2 km/h 6.4 km/h 96 % 0 mm 0 W/m2
01:37 2.7 °C 2.1 °C 1019.5 hPa North 6.4 km/h 11.3 km/h 96 % 0 mm 0 W/m2
01:42 2.7 °C 2.1 °C 1019.5 hPa North 6.4 km/h 11.3 km/h 96 % 0 mm 0 W/m2
01:47 2.7 °C 2.1 °C 1019.9 hPa North 3.2 km/h 8 km/h 96 % 0 mm 0 W/m2
01:52 2.7 °C 2.1 °C 1019.9 hPa North 1.6 km/h 8 km/h 96 % 0 mm 0 W/m2
01:57 2.7 °C 2.1 °C 1019.9 hPa North 1.6 km/h 8 km/h 96 % 0 mm 0 W/m2
02:02 2.6 °C 2 °C 1020.2 hPa North 4.8 km/h 9.7 km/h 96 % 0 mm 0 W/m2
02:07 2.6 °C 2 °C 1020.2 hPa NNE 8 km/h 9.7 km/h 96 % 0 mm 0 W/m2
02:13 2.6 °C 2 °C 1020.2 hPa NNE 6.4 km/h 11.3 km/h 96 % 0 mm 0 W/m2
02:18 2.6 °C 2 °C 1020.5 hPa North 3.2 km/h 6.4 km/h 96 % 0 mm 0 W/m2
02:23 2.6 °C 2 °C 1020.5 hPa North 3.2 km/h 9.7 km/h 96 % 0 mm 0 W/m2
02:28 2.5 °C 1.9 °C 1020.5 hPa NE 3.2 km/h 8 km/h 96 % 0 mm 0 W/m2
02:33 2.5 °C 1.8 °C 1020.5 hPa North 4.8 km/h 9.7 km/h 95 % 0 mm 0 W/m2
02:38 2.4 °C 1.7 °C 1020.9 hPa NNE 1.6 km/h 8 km/h 95 % 0 mm 0 W/m2
02:43 2.4 °C 1.7 °C 1020.9 hPa North 6.4 km/h 9.7 km/h 95 % 0 mm 0 W/m2
02:48 2.4 °C 1.7 °C 1020.9 hPa NNE 4.8 km/h 9.7 km/h 95 % 0 mm 0 W/m2
02:53 2.4 °C 1.7 °C 1020.9 hPa North 3.2 km/h 11.3 km/h 95 % 0 mm 0 W/m2
02:58 2.4 °C 1.7 °C 1020.9 hPa NNE 4.8 km/h 9.7 km/h 95 % 0 mm 0 W/m2
03:03 2.3 °C 1.6 °C 1020.9 hPa NE 1.6 km/h 6.4 km/h 95 % 0 mm 0 W/m2
03:08 2.3 °C 1.6 °C 1021.2 hPa ENE 4.8 km/h 12.9 km/h 95 % 0 mm 0 W/m2
03:13 2.3 °C 1.6 °C 1021.2 hPa NE 8 km/h 12.9 km/h 95 % 0 mm 0 W/m2
03:18 2.2 °C 1.5 °C 1021.2 hPa NE 4.8 km/h 12.9 km/h 95 % 0 mm 0 W/m2
03:23 2.2 °C 1.5 °C 1021.6 hPa NNE 4.8 km/h 14.5 km/h 95 % 0 mm 0 W/m2
03:28 2.2 °C 1.5 °C 1021.6 hPa NNE 6.4 km/h 11.3 km/h 95 % 0 mm 0 W/m2
03:33 2.1 °C 1.4 °C 1021.6 hPa NNE 8 km/h 11.3 km/h 95 % 0 mm 0 W/m2
03:38 2.1 °C 1.4 °C 1021.6 hPa NNE 8 km/h 17.7 km/h 95 % 0 mm 0 W/m2
03:43 2.1 °C 1.2 °C 1021.9 hPa NE 1.6 km/h 11.3 km/h 94 % 0 mm 0 W/m2
03:48 2.1 °C 1.2 °C 1021.9 hPa NE 8 km/h 12.9 km/h 94 % 0 mm 0 W/m2
03:53 2 °C 1.1 °C 1021.9 hPa NE 3.2 km/h 8 km/h 94 % 0 mm 0 W/m2
03:58 2 °C 1.1 °C 1022.2 hPa NE 4.8 km/h 11.3 km/h 94 % 0 mm 0 W/m2
04:03 2 °C 1 °C 1022.2 hPa NE 6.4 km/h 12.9 km/h 93 % 0 mm 0 W/m2
04:08 1.9 °C 0.9 °C 1022.2 hPa NE 6.4 km/h 11.3 km/h 93 % 0 mm 0 W/m2
04:13 1.9 °C 0.9 °C 1022.6 hPa NNE 6.4 km/h 12.9 km/h 93 % 0 mm 0 W/m2
04:18 1.9 °C 0.7 °C 1022.6 hPa NE 4.8 km/h 8 km/h 92 % 0 mm 0 W/m2
04:23 1.8 °C 0.6 °C 1022.9 hPa NE 3.2 km/h 9.7 km/h 92 % 0 mm 0 W/m2
04:24 1.8 °C 0.6 °C 1022.9 hPa NE 3.2 km/h 9.7 km/h 92 % 0 mm 0 W/m2
04:29 1.8 °C 0.6 °C 1022.9 hPa NE 6.4 km/h 12.9 km/h 92 % 0 mm 0 W/m2
04:34 1.8 °C 0.6 °C 1023.2 hPa NNE 4.8 km/h 9.7 km/h 92 % 0 mm 0 W/m2
04:39 1.8 °C 0.6 °C 1023.2 hPa NNE 8 km/h 11.3 km/h 92 % 0 mm 0 W/m2
04:44 1.8 °C 0.6 °C 1023.2 hPa North 8 km/h 11.3 km/h 92 % 0 mm 0 W/m2
04:49 1.8 °C 0.6 °C 1023.2 hPa North 1.6 km/h 6.4 km/h 92 % 0 mm 0 W/m2
04:54 1.8 °C 0.6 °C 1023.2 hPa NNW 1.6 km/h 8 km/h 92 % 0 mm 0 W/m2
04:59 1.8 °C 0.6 °C 1023.2 hPa North 4.8 km/h 11.3 km/h 92 % 0 mm 0 W/m2
05:04 1.8 °C 0.6 °C 1023.6 hPa NNE 6.4 km/h 11.3 km/h 92 % 0 mm 0 W/m2
05:09 1.8 °C 0.6 °C 1023.6 hPa North 6.4 km/h 9.7 km/h 92 % 0 mm 0 W/m2
05:14 1.8 °C 0.6 °C 1023.9 hPa North 4.8 km/h 9.7 km/h 92 % 0 mm 0 W/m2
05:19 1.8 °C 0.6 °C 1023.9 hPa NNW 4.8 km/h 8 km/h 92 % 0 mm 0 W/m2
05:24 1.7 °C 0.6 °C 1023.9 hPa North 3.2 km/h 8 km/h 92 % 0 mm 0 W/m2
05:29 1.7 °C 0.6 °C 1024.3 hPa NNW 3.2 km/h 8 km/h 92 % 0 mm 0 W/m2
05:34 1.6 °C 0.4 °C 1024.3 hPa NNW 4.8 km/h 8 km/h 92 % 0 mm 0 W/m2
05:39 1.6 °C 0.4 °C 1024.3 hPa NNW 4.8 km/h 9.7 km/h 92 % 0 mm 0 W/m2
05:44 1.6 °C 0.4 °C 1024.6 hPa North 8 km/h 12.9 km/h 92 % 0 mm 0 W/m2
05:49 1.6 °C 0.4 °C 1024.6 hPa NNW 6.4 km/h 12.9 km/h 92 % 0 mm 0 W/m2
05:55 1.7 °C 0.6 °C 1024.6 hPa NNW 6.4 km/h 12.9 km/h 92 % 0 mm 0 W/m2
06:00 1.7 °C 0.6 °C 1024.9 hPa NNW 4.8 km/h 9.7 km/h 92 % 0 mm 0 W/m2
06:05 1.7 °C 0.6 °C 1024.9 hPa NNW 8 km/h 11.3 km/h 92 % 0 mm 0 W/m2
06:10 1.7 °C 0.6 °C 1025.3 hPa NNW 6.4 km/h 12.9 km/h 92 % 0 mm 0 W/m2
06:15 1.7 °C 0.6 °C 1025.3 hPa NW 4.8 km/h 8 km/h 92 % 0 mm 0 W/m2
06:20 1.7 °C 0.6 °C 1025.3 hPa NNW 3.2 km/h 8 km/h 92 % 0 mm 0 W/m2
06:25 1.7 °C 0.6 °C 1025.3 hPa NW 3.2 km/h 8 km/h 92 % 0 mm 0 W/m2
06:30 1.7 °C 0.6 °C 1025.3 hPa NNW 1.6 km/h 3.2 km/h 92 % 0 mm 0 W/m2
06:35 1.7 °C 0.6 °C 1025.3 hPa Calm   1.6 km/h 92 % 0 mm 0 W/m2
06:40 1.6 °C 0.4 °C 1025.6 hPa North 1.6 km/h 4.8 km/h 92 % 0 mm 0 W/m2
06:45 1.6 °C 0.4 °C 1025.6 hPa North 3.2 km/h 11.3 km/h 92 % 0 mm 0 W/m2
06:50 1.6 °C 0.6 °C 1025.6 hPa North 1.6 km/h 6.4 km/h 93 % 0 mm 0 W/m2
06:55 1.6 °C 0.6 °C 1025.6 hPa NNE 4.8 km/h 11.3 km/h 93 % 0 mm 0 W/m2
07:00 1.7 °C 0.6 °C 1025.6 hPa Calm   3.2 km/h 92 % 0 mm 0 W/m2
07:05 1.7 °C 0.6 °C 1026 hPa North 1.6 km/h 8 km/h 92 % 0 mm 0 W/m2
07:10 1.7 °C 0.6 °C 1026 hPa Calm   1.6 km/h 92 % 0 mm 0 W/m2
07:15 1.8 °C 0.6 °C 1026.3 hPa Calm   1.6 km/h 92 % 0 mm 0 W/m2
07:20 1.8 °C 0.6 °C 1026.3 hPa Calm   4.8 km/h 92 % 0 mm 0 W/m2
07:25 1.8 °C 0.6 °C 1026.3 hPa NNW 6.4 km/h 12.9 km/h 92 % 0 mm 0 W/m2
07:30 1.9 °C 0.6 °C 1026.6 hPa NNE 4.8 km/h 11.3 km/h 91 % 0 mm 0 W/m2
07:35 1.9 °C 0.6 °C 1026.6 hPa North 8 km/h 14.5 km/h 91 % 0 mm 0 W/m2
07:40 2 °C 0.7 °C 1027 hPa NE 4.8 km/h 9.7 km/h 91 % 0 mm 0 W/m2
07:45 2 °C 0.7 °C 1027 hPa NNE 4.8 km/h 9.7 km/h 91 % 0 mm 0 W/m2
07:50 2 °C 0.7 °C 1027 hPa NNE 3.2 km/h 9.7 km/h 91 % 0 mm 0 W/m2
07:55 2 °C 0.7 °C 1027 hPa NNE 3.2 km/h 6.4 km/h 91 % 0 mm 5 W/m2
08:00 2 °C 0.7 °C 1027.3 hPa NNE 4.8 km/h 11.3 km/h 91 % 0 mm 7 W/m2
08:05 1.9 °C 0.6 °C 1027.3 hPa ENE 3.2 km/h 8 km/h 91 % 0 mm 9 W/m2
08:10 1.9 °C 0.6 °C 1027.3 hPa North 4.8 km/h 9.7 km/h 91 % 0 mm 12 W/m2
08:16 1.9 °C 0.6 °C 1027.3 hPa NNE 1.6 km/h 4.8 km/h 91 % 0 mm 12 W/m2
08:21 1.9 °C 0.6 °C 1027.3 hPa NNE 3.2 km/h 8 km/h 91 % 0 mm 18 W/m2
08:26 1.9 °C 0.6 °C 1027.7 hPa NNE 4.8 km/h 9.7 km/h 91 % 0 mm 21 W/m2
08:31 1.9 °C 0.6 °C 1027.7 hPa North 3.2 km/h 9.7 km/h 91 % 0 mm 25 W/m2
08:36 1.9 °C 0.6 °C 1027.7 hPa NNW 6.4 km/h 9.7 km/h 91 % 0 mm 30 W/m2
08:41 2 °C 0.7 °C 1027.7 hPa NNW 4.8 km/h 9.7 km/h 91 % 0 mm 39 W/m2
08:46 2 °C 0.7 °C 1027.7 hPa North 6.4 km/h 11.3 km/h 91 % 0 mm 40 W/m2
08:51 2 °C 0.7 °C 1027.7 hPa North 4.8 km/h 9.7 km/h 91 % 0 mm 47 W/m2
08:56 2 °C 0.7 °C 1028 hPa NNE 4.8 km/h 9.7 km/h 91 % 0 mm 54 W/m2
09:01 2.1 °C 0.8 °C 1028 hPa NNE 3.2 km/h 9.7 km/h 91 % 0 mm 69 W/m2
09:06 2.1 °C 0.8 °C 1028 hPa NNE 8 km/h 11.3 km/h 91 % 0 mm 56 W/m2
09:11 2.1 °C 0.8 °C 1028 hPa NNE 4.8 km/h 11.3 km/h 91 % 0 mm 63 W/m2
09:16 2.1 °C 0.8 °C 1028 hPa NNE 4.8 km/h 9.7 km/h 91 % 0 mm 74 W/m2
09:21 2.1 °C 0.8 °C 1028.3 hPa NNE 6.4 km/h 11.3 km/h 91 % 0 mm 88 W/m2
09:26 2.2 °C 0.9 °C 1028.3 hPa NNE 8 km/h 12.9 km/h 91 % 0 mm 88 W/m2
09:32 2.2 °C 0.9 °C 1028.3 hPa North 8 km/h 12.9 km/h 91 % 0 mm 90 W/m2
09:37 2.3 °C 1.1 °C 1028.7 hPa North 8 km/h 14.5 km/h 92 % 0 mm 98 W/m2
09:42 2.3 °C 1 °C 1028.7 hPa North 9.7 km/h 16.1 km/h 91 % 0 mm 105 W/m2
09:47 2.3 °C 1 °C 1028.7 hPa North 9.7 km/h 16.1 km/h 91 % 0 mm 149 W/m2
09:52 2.4 °C 1.2 °C 1028.7 hPa North 4.8 km/h 11.3 km/h 92 % 0 mm 109 W/m2
09:57 2.4 °C 1.2 °C 1028.7 hPa North 6.4 km/h 14.5 km/h 92 % 0 mm 100 W/m2
10:02 2.4 °C 1.2 °C 1028.7 hPa North 4.8 km/h 9.7 km/h 92 % 0 mm 98 W/m2
10:07 2.4 °C 1.2 °C 1028.7 hPa NNE 8 km/h 12.9 km/h 92 % 0 mm 113 W/m2
10:12 2.5 °C 1.3 °C 1028.7 hPa NNE 8 km/h 12.9 km/h 92 % 0 mm 111 W/m2
10:17 2.6 °C 1.4 °C 1029 hPa NNE 8 km/h 12.9 km/h 92 % 0 mm 104 W/m2
10:22 2.6 °C 1.4 °C 1029 hPa NNE 9.7 km/h 12.9 km/h 92 % 0 mm 98 W/m2
10:27 2.6 °C 1.3 °C 1029 hPa NNE 8 km/h 12.9 km/h 91 % 0 mm 54 W/m2
10:32 2.7 °C 1.6 °C 1029.3 hPa NNE 8 km/h 11.3 km/h 92 % 0 mm 53 W/m2
10:37 2.7 °C 1.4 °C 1029.3 hPa NNE 8 km/h 12.9 km/h 91 % 0 mm 54 W/m2
10:42 2.7 °C 1.4 °C 1029.3 hPa NNE 8 km/h 12.9 km/h 91 % 0 mm 65 W/m2
10:47 2.7 °C 1.4 °C 1029.3 hPa NNE 8 km/h 14.5 km/h 91 % 0 mm 90 W/m2
10:52 2.7 °C 1.4 °C 1029.3 hPa NNE 6.4 km/h 14.5 km/h 91 % 0 mm 98 W/m2
10:57 2.7 °C 1.4 °C 1029.3 hPa NNE 8 km/h 16.1 km/h 91 % 0 mm 86 W/m2
11:02 2.7 °C 1.4 °C 1029.3 hPa NNE 11.3 km/h 19.3 km/h 91 % 0 mm 93 W/m2
11:07 2.8 °C 1.3 °C 1029.3 hPa NNE 9.7 km/h 12.9 km/h 90 % 0 mm 86 W/m2
11:12 2.8 °C 1.3 °C 1029.7 hPa North 4.8 km/h 11.3 km/h 90 % 0 mm 109 W/m2
11:17 2.9 °C 1.4 °C 1029.7 hPa North 6.4 km/h 11.3 km/h 90 % 0 mm 113 W/m2
11:22 3 °C 1.4 °C 1029.7 hPa North 6.4 km/h 11.3 km/h 89 % 0 mm 111 W/m2
11:27 3.1 °C 1.3 °C 1029.7 hPa North 3.2 km/h 9.7 km/h 88 % 0 mm 120 W/m2
11:32 3.2 °C 1.4 °C 1029.7 hPa North 4.8 km/h 11.3 km/h 88 % 0 mm 139 W/m2
11:42 3.4 °C 1.4 °C 1029.7 hPa North 4.8 km/h 11.3 km/h 87 % 0 mm 153 W/m2
11:47 3.6 °C 1.6 °C 1029.7 hPa North 6.4 km/h 12.9 km/h 87 % 0 mm 163 W/m2
11:52 3.6 °C 1.5 °C 1029.7 hPa NNE 4.8 km/h 8 km/h 86 % 0 mm 174 W/m2
11:57 3.7 °C 1.6 °C 1029.7 hPa NNE 8 km/h 12.9 km/h 86 % 0 mm 163 W/m2
12:02 3.7 °C 1.6 °C 1029.7 hPa NNE 8 km/h 14.5 km/h 86 % 0 mm 171 W/m2
12:07 3.8 °C 1.7 °C 1029.7 hPa North 8 km/h 12.9 km/h 86 % 0 mm 186 W/m2
12:12 3.8 °C 1.7 °C 1029.7 hPa NNE 8 km/h 14.5 km/h 86 % 0 mm 264 W/m2
12:17 3.9 °C 1.8 °C 1029.7 hPa NNE 9.7 km/h 14.5 km/h 86 % 0 mm 236 W/m2
12:23 3.9 °C 1.6 °C 1030 hPa NNE 6.4 km/h 11.3 km/h 85 % 0 mm 323 W/m2
12:28 4.1 °C 1.9 °C 1030 hPa NE 1.6 km/h 8 km/h 86 % 0 mm 315 W/m2
12:33 4.4 °C 2.3 °C 1030 hPa NE 8 km/h 12.9 km/h 86 % 0 mm 234 W/m2
12:38 4.5 °C 2.1 °C 1029.7 hPa ENE 3.2 km/h 8 km/h 84 % 0 mm 315 W/m2
12:43 4.6 °C 1.9 °C 1030 hPa NNE 9.7 km/h 16.1 km/h 83 % 0 mm 438 W/m2
12:48 4.6 °C 1.9 °C 1030 hPa North 12.9 km/h 17.7 km/h 83 % 0 mm 424 W/m2
12:53 4.8 °C 2 °C 1030 hPa NE 8 km/h 14.5 km/h 82 % 0 mm 237 W/m2
12:58 4.9 °C 2.1 °C 1030 hPa NE 8 km/h 14.5 km/h 82 % 0 mm 462 W/m2
13:03 5.1 °C 2.1 °C 1030 hPa NE 6.4 km/h 12.9 km/h 81 % 0 mm 174 W/m2
13:08 5.1 °C 1.9 °C 1030 hPa NE 8 km/h 17.7 km/h 80 % 0 mm 197 W/m2
13:13 5.1 °C 1.8 °C 1030 hPa ENE 6.4 km/h 19.3 km/h 79 % 0 mm 158 W/m2
13:18 4.9 °C 1.6 °C 1030 hPa ENE 8 km/h 16.1 km/h 79 % 0 mm 183 W/m2
13:23 4.8 °C 1.4 °C 1030 hPa NE 9.7 km/h 16.1 km/h 79 % 0 mm 186 W/m2
13:28 4.8 °C 1.4 °C 1030 hPa NE 12.9 km/h 20.9 km/h 79 % 0 mm 120 W/m2
13:33 4.7 °C 1.4 °C 1030 hPa NE 11.3 km/h 17.7 km/h 79 % 0 mm 120 W/m2
13:38 4.7 °C 1.6 °C 1030 hPa NE 6.4 km/h 20.9 km/h 80 % 0 mm 135 W/m2
13:43 4.6 °C 1.3 °C 1030.4 hPa ENE 11.3 km/h 19.3 km/h 79 % 0 mm 158 W/m2
13:48 4.6 °C 1.3 °C 1030.4 hPa NE 9.7 km/h 17.7 km/h 79 % 0 mm 265 W/m2
13:53 4.7 °C 1.4 °C 1030 hPa NE 6.4 km/h 17.7 km/h 79 % 0 mm 167 W/m2
13:58 4.7 °C 1.4 °C 1030 hPa NE 6.4 km/h 11.3 km/h 79 % 0 mm 128 W/m2
14:03 4.7 °C 1.2 °C 1030.4 hPa NE 11.3 km/h 22.5 km/h 78 % 0 mm 158 W/m2
14:08 4.7 °C 1.2 °C 1030.4 hPa NNE 3.2 km/h 9.7 km/h 78 % 0 mm 383 W/m2
14:13 4.9 °C 1.2 °C 1030.4 hPa NE 11.3 km/h 20.9 km/h 77 % 0 mm 269 W/m2
14:18 4.9 °C 1 °C 1030.4 hPa NE 11.3 km/h 19.3 km/h 76 % 0 mm 169 W/m2
14:23 5 °C 1.1 °C 1030.4 hPa NE 11.3 km/h 19.3 km/h 76 % 0 mm 316 W/m2
14:28 5 °C 1.1 °C 1030.4 hPa ENE 8 km/h 16.1 km/h 76 % 0 mm 236 W/m2
14:33 4.9 °C 1 °C 1030.4 hPa NE 6.4 km/h 12.9 km/h 76 % 0 mm 83 W/m2
14:38 4.9 °C 1 °C 1030.4 hPa NE 6.4 km/h 14.5 km/h 76 % 0 mm 146 W/m2
14:43 5.1 °C 1.2 °C 1030.4 hPa NE 4.8 km/h 17.7 km/h 76 % 0 mm 299 W/m2
14:48 5.1 °C 0.8 °C 1030.4 hPa NNE 8 km/h 19.3 km/h 74 % 0 mm 206 W/m2
14:53 5.1 °C 0.8 °C 1030.4 hPa ENE 6.4 km/h 14.5 km/h 74 % 0 mm 102 W/m2
14:58 5.1 °C 0.7 °C 1030.4 hPa NNE 6.4 km/h 12.9 km/h 73 % 0 mm 74 W/m2
15:03 4.9 °C 0.4 °C 1030.4 hPa NE 6.4 km/h 12.9 km/h 73 % 0 mm 39 W/m2
15:09 4.8 °C 0.4 °C 1030.7 hPa NE 6.4 km/h 12.9 km/h 73 % 0 mm 35 W/m2
15:14 4.7 °C 0.4 °C 1030.4 hPa ENE 4.8 km/h 12.9 km/h 74 % 0 mm 39 W/m2
15:19 4.6 °C 0.6 °C 1030.7 hPa ENE 4.8 km/h 9.7 km/h 75 % 0 mm 37 W/m2
15:24 4.5 °C 0.4 °C 1030.7 hPa ENE 6.4 km/h 11.3 km/h 75 % 0 mm 42 W/m2
15:29 4.4 °C 0.3 °C 1030.7 hPa NE 8 km/h 16.1 km/h 75 % 0 mm 44 W/m2
15:34 4.4 °C 0.6 °C 1030.7 hPa NE 3.2 km/h 9.7 km/h 76 % 0 mm 30 W/m2
15:39 4.4 °C 0.3 °C 1030.7 hPa NE 6.4 km/h 12.9 km/h 75 % 0 mm 37 W/m2
15:44 4.3 °C 0.1 °C 1030.7 hPa NE 6.4 km/h 12.9 km/h 74 % 0 mm 39 W/m2
15:49 4.2 °C 0 °C 1030.7 hPa ENE 3.2 km/h 11.3 km/h 74 % 0 mm 42 W/m2
15:54 4.2 °C 0 °C 1030.7 hPa NE 6.4 km/h 12.9 km/h 74 % 0 mm 53 W/m2
15:59 4.1 °C -0.3 °C 1031 hPa NE 6.4 km/h 11.3 km/h 73 % 0 mm 40 W/m2
16:04 4.1 °C -0.3 °C 1031 hPa NE 3.2 km/h 9.7 km/h 73 % 0 mm 30 W/m2
16:09 4.1 °C -0.3 °C 1031 hPa NE 3.2 km/h 11.3 km/h 73 % 0 mm 25 W/m2
16:14 4.1 °C -0.1 °C 1031 hPa NE 8 km/h 14.5 km/h 74 % 0 mm 21 W/m2
16:19 4 °C -0.2 °C 1031 hPa NNE 4.8 km/h 14.5 km/h 74 % 0 mm 23 W/m2
16:24 3.9 °C -0.3 °C 1031 hPa ENE 3.2 km/h 9.7 km/h 74 % 0 mm 18 W/m2
16:29 3.9 °C -0.1 °C 1031 hPa North 3.2 km/h 8 km/h 75 % 0 mm 14 W/m2
16:34 3.8 °C -0.4 °C 1031.4 hPa NNE 6.4 km/h 14.5 km/h 74 % 0 mm 12 W/m2
16:39 3.7 °C -0.5 °C 1031.4 hPa NNE 3.2 km/h 11.3 km/h 74 % 0 mm 9 W/m2
16:44 3.6 °C -0.8 °C 1031.4 hPa NE 6.4 km/h 16.1 km/h 73 % 0 mm 7 W/m2
16:49 3.5 °C -0.9 °C 1031.4 hPa NE 8 km/h 14.5 km/h 73 % 0 mm 0 W/m2
16:54 3.4 °C -1 °C 1031.4 hPa ENE 1.6 km/h 6.4 km/h 73 % 0 mm 0 W/m2
16:59 3.4 °C -1 °C 1031.4 hPa North 4.8 km/h 11.3 km/h 73 % 0 mm 0 W/m2
17:04 3.4 °C -1 °C 1031.4 hPa Calm   3.2 km/h 73 % 0 mm 0 W/m2
17:09 3.3 °C -1.1 °C 1031.4 hPa NNE 3.2 km/h 11.3 km/h 73 % 0 mm 0 W/m2
17:14 3.3 °C -1.1 °C 1031.4 hPa North 4.8 km/h 8 km/h 73 % 0 mm 0 W/m2
17:19 3.3 °C -1.1 °C 1031.4 hPa North 1.6 km/h 6.4 km/h 73 % 0 mm 0 W/m2
17:24 3.2 °C -1 °C 1031.4 hPa North 3.2 km/h 8 km/h 74 % 0 mm 0 W/m2
17:29 3.1 °C -1.1 °C 1031.4 hPa Calm   3.2 km/h 74 % 0 mm 0 W/m2
17:34 3 °C -1 °C 1031.4 hPa North 1.6 km/h 8 km/h 75 % 0 mm 0 W/m2
17:39 2.8 °C -1 °C 1031.4 hPa North 6.4 km/h 12.9 km/h 76 % 0 mm 0 W/m2
17:44 2.8 °C -1 °C 1031.4 hPa North 3.2 km/h 8 km/h 76 % 0 mm 0 W/m2
17:49 2.7 °C -1.1 °C 1031.4 hPa NNW 1.6 km/h 8 km/h 76 % 0 mm 0 W/m2
17:54 2.6 °C -1.1 °C 1031.4 hPa North 6.4 km/h 11.3 km/h 77 % 0 mm 0 W/m2
17:59 2.6 °C -0.8 °C 1031.7 hPa NNW 1.6 km/h 6.4 km/h 78 % 0 mm 0 W/m2
18:04 2.6 °C -0.8 °C 1031.7 hPa NNW 4.8 km/h 9.7 km/h 78 % 0 mm 0 W/m2
18:09 2.6 °C -0.7 °C 1031.7 hPa NNW 6.4 km/h 11.3 km/h 79 % 0 mm 0 W/m2
18:14 2.5 °C -0.8 °C 1031.7 hPa NNW 6.4 km/h 9.7 km/h 79 % 0 mm 0 W/m2
18:19 2.4 °C -0.9 °C 1031.7 hPa North 4.8 km/h 9.7 km/h 79 % 0 mm 0 W/m2
18:25 2.3 °C -0.9 °C 1031.7 hPa North 3.2 km/h 11.3 km/h 79 % 0 mm 0 W/m2
18:30 2.3 °C -0.8 °C 1031.7 hPa NNW 6.4 km/h 11.3 km/h 80 % 0 mm 0 W/m2
18:35 2.2 °C -0.9 °C 1031.7 hPa NNW 8 km/h 12.9 km/h 80 % 0 mm 0 W/m2
18:40 2.3 °C -0.6 °C 1031.7 hPa North 3.2 km/h 9.7 km/h 81 % 0 mm 0 W/m2
18:45 2.3 °C -0.6 °C 1031.7 hPa North 4.8 km/h 11.3 km/h 81 % 0 mm 0 W/m2
18:50 2.3 °C -0.6 °C 1031.7 hPa North 4.8 km/h 14.5 km/h 81 % 0 mm 0 W/m2
18:55 2.3 °C -0.6 °C 1031.7 hPa North 3.2 km/h 8 km/h 81 % 0 mm 0 W/m2
19:00 2.3 °C -0.6 °C 1031.7 hPa NNE 6.4 km/h 11.3 km/h 81 % 0 mm 0 W/m2
19:05 2.2 °C -0.7 °C 1031.7 hPa NNE 4.8 km/h 11.3 km/h 81 % 0 mm 0 W/m2
19:10 2.2 °C -0.7 °C 1031.7 hPa NNE 4.8 km/h 11.3 km/h 81 % 0 mm 0 W/m2
19:15 2.2 °C -0.7 °C 1032.1 hPa North 3.2 km/h 9.7 km/h 81 % 0 mm 0 W/m2
19:20 2.2 °C -0.9 °C 1032.1 hPa NNE 6.4 km/h 11.3 km/h 80 % 0 mm 0 W/m2
19:25 2.2 °C -0.9 °C 1032.1 hPa NNE 3.2 km/h 8 km/h 80 % 0 mm 0 W/m2
19:30 2.2 °C -0.7 °C 1032.1 hPa North 3.2 km/h 9.7 km/h 81 % 0 mm 0 W/m2
19:35 2.3 °C -0.6 °C 1032.1 hPa North 6.4 km/h 11.3 km/h 81 % 0 mm 0 W/m2
19:40 2.2 °C -0.7 °C 1032.1 hPa NNE 4.8 km/h 11.3 km/h 81 % 0 mm 0 W/m2
19:45 2.2 °C -0.6 °C 1032.1 hPa North 3.2 km/h 11.3 km/h 82 % 0 mm 0 W/m2
19:50 2.2 °C -0.6 °C 1032.1 hPa North 3.2 km/h 8 km/h 82 % 0 mm 0 W/m2
19:55 2.2 °C -0.4 °C 1032.1 hPa North 6.4 km/h 12.9 km/h 83 % 0 mm 0 W/m2
20:00 2.2 °C -0.4 °C 1032.1 hPa North 4.8 km/h 11.3 km/h 83 % 0 mm 0 W/m2
20:05 2.2 °C -0.4 °C 1032.1 hPa North 8 km/h 12.9 km/h 83 % 0 mm 0 W/m2
20:10 2.1 °C -0.3 °C 1032.1 hPa North 3.2 km/h 9.7 km/h 84 % 0 mm 0 W/m2
20:15 2.1 °C -0.3 °C 1032.1 hPa North 6.4 km/h 11.3 km/h 84 % 0 mm 0 W/m2
20:20 2.1 °C -0.2 °C 1032.1 hPa North 3.2 km/h 11.3 km/h 85 % 0 mm 0 W/m2
20:25 2.1 °C -0.2 °C 1032.1 hPa North 3.2 km/h 8 km/h 85 % 0 mm 0 W/m2
20:30 2.1 °C -0.2 °C 1032.1 hPa NNE 3.2 km/h 8 km/h 85 % 0 mm 0 W/m2
20:35 2.1 °C -0.2 °C 1032.1 hPa North 4.8 km/h 8 km/h 85 % 0 mm 0 W/m2
20:40 2.1 °C -0.2 °C 1032.1 hPa North 1.6 km/h 8 km/h 85 % 0 mm 0 W/m2
20:45 2 °C -0.3 °C 1032.1 hPa North 3.2 km/h 9.7 km/h 85 % 0 mm 0 W/m2
20:50 2 °C -0.1 °C 1032.1 hPa North 3.2 km/h 9.7 km/h 86 % 0 mm 0 W/m2
20:55 2 °C -0.1 °C 1032.1 hPa North 4.8 km/h 9.7 km/h 86 % 0 mm 0 W/m2
21:00 2 °C -0.1 °C 1032.4 hPa Calm   3.2 km/h 86 % 0 mm 0 W/m2
21:05 2 °C -0.1 °C 1032.1 hPa NNE 6.4 km/h 11.3 km/h 86 % 0 mm 0 W/m2
21:10 1.9 °C -0.3 °C 1032.1 hPa NNE 8 km/h 12.9 km/h 85 % 0 mm 0 W/m2
21:15 2 °C -0.1 °C 1032.4 hPa NNE 4.8 km/h 11.3 km/h 86 % 0 mm 0 W/m2
21:20 1.9 °C -0.2 °C 1032.4 hPa North 6.4 km/h 9.7 km/h 86 % 0 mm 0 W/m2
21:25 1.9 °C -0.2 °C 1032.4 hPa North 3.2 km/h 9.7 km/h 86 % 0 mm 0 W/m2
21:30 1.9 °C -0.2 °C 1032.4 hPa North 3.2 km/h 9.7 km/h 86 % 0 mm 0 W/m2
21:35 1.9 °C -0.2 °C 1032.4 hPa North 3.2 km/h 8 km/h 86 % 0 mm 0 W/m2
21:41 1.9 °C -0.2 °C 1032.4 hPa North 6.4 km/h 11.3 km/h 86 % 0 mm 0 W/m2
21:46 1.9 °C -0.2 °C 1032.4 hPa North 3.2 km/h 9.7 km/h 86 % 0 mm 0 W/m2
21:51 1.9 °C -0.2 °C 1032.1 hPa NNE 3.2 km/h 8 km/h 86 % 0 mm 0 W/m2
21:56 1.9 °C -0.2 °C 1032.1 hPa North 3.2 km/h 9.7 km/h 86 % 0 mm 0 W/m2
22:01 1.9 °C -0.2 °C 1032.1 hPa North 6.4 km/h 11.3 km/h 86 % 0 mm 0 W/m2
22:06 1.9 °C -0.3 °C 1032.1 hPa North 8 km/h 12.9 km/h 85 % 0 mm 0 W/m2
22:11 1.9 °C -0.3 °C 1032.1 hPa North 6.4 km/h 11.3 km/h 85 % 0 mm 0 W/m2
22:16 1.9 °C -0.3 °C 1032.1 hPa North 8 km/h 12.9 km/h 85 % 0 mm 0 W/m2
22:21 1.9 °C -0.3 °C 1032.1 hPa NNE 3.2 km/h 8 km/h 85 % 0 mm 0 W/m2
22:26 1.9 °C -0.3 °C 1032.1 hPa NNE 1.6 km/h 8 km/h 85 % 0 mm 0 W/m2
22:31 1.9 °C -0.3 °C 1031.7 hPa North 3.2 km/h 8 km/h 85 % 0 mm 0 W/m2
22:36 1.9 °C -0.3 °C 1031.7 hPa North 3.2 km/h 8 km/h 85 % 0 mm 0 W/m2
22:41 1.8 °C -0.4 °C 1031.7 hPa NNE 3.2 km/h 8 km/h 85 % 0 mm 0 W/m2
22:46 1.8 °C -0.4 °C 1031.7 hPa North 3.2 km/h 11.3 km/h 85 % 0 mm 0 W/m2
22:51 1.8 °C -0.4 °C 1031.7 hPa North 3.2 km/h 8 km/h 85 % 0 mm 0 W/m2
22:56 1.8 °C -0.4 °C 1031.7 hPa NW 1.6 km/h 3.2 km/h 85 % 0 mm 0 W/m2
23:01 1.8 °C -0.4 °C 1031.7 hPa NNW 1.6 km/h 6.4 km/h 85 % 0 mm 0 W/m2
23:06 1.8 °C -0.4 °C 1031.7 hPa NNE 6.4 km/h 9.7 km/h 85 % 0 mm 0 W/m2
23:11 1.8 °C -0.4 °C 1032.1 hPa North 4.8 km/h 9.7 km/h 85 % 0 mm 0 W/m2
23:16 1.8 °C -0.4 °C 1031.7 hPa North 4.8 km/h 9.7 km/h 85 % 0 mm 0 W/m2
23:21 1.8 °C -0.4 °C 1031.7 hPa North 3.2 km/h 9.7 km/h 85 % 0 mm 0 W/m2
23:26 1.8 °C -0.4 °C 1032.1 hPa North 1.6 km/h 8 km/h 85 % 0 mm 0 W/m2
23:27 1.8 °C -0.4 °C 1032.1 hPa North 3.2 km/h 9.7 km/h 85 % 0 mm 0 W/m2
23:32 1.8 °C -0.4 °C 1031.7 hPa NNW 4.8 km/h 9.7 km/h 85 % 0 mm 0 W/m2
23:37 1.8 °C -0.4 °C 1031.7 hPa North 4.8 km/h 11.3 km/h 85 % 0 mm 0 W/m2
23:42 1.8 °C -0.4 °C 1031.7 hPa North 4.8 km/h 9.7 km/h 85 % 0 mm 0 W/m2
23:47 1.8 °C -0.4 °C 1031.7 hPa North 6.4 km/h 11.3 km/h 85 % 0 mm 0 W/m2
23:52 1.8 °C -0.4 °C 1031.7 hPa North 4.8 km/h 9.7 km/h 85 % 0 mm 0 W/m2
23:57 1.8 °C -0.4 °C 1031.7 hPa NNW 6.4 km/h 11.3 km/h 85 % 0 mm 0 W/m2
Delerius-Weather
Compliments of Weather Underground - 2.25 mb

Data updates at regular intervals.